createdAt,value
2022-10-22T00:00:31.432Z,90.40
2022-10-22T00:01:03.562Z,90.60
2022-10-22T00:01:35.473Z,90.60
2022-10-22T00:02:07.989Z,90.70
2022-10-22T00:02:40.291Z,90.60
2022-10-22T00:03:12.284Z,90.80
2022-10-22T00:03:44.154Z,90.60
2022-10-22T00:04:15.973Z,90.40
2022-10-22T00:04:48.423Z,90.60
2022-10-22T00:05:20.204Z,90.30
2022-10-22T00:05:51.923Z,90.60
2022-10-22T00:06:23.716Z,90.50
2022-10-22T00:06:55.481Z,90.60
2022-10-22T00:07:27.332Z,90.60
2022-10-22T00:07:59.072Z,90.50
2022-10-22T00:08:31.036Z,90.60
2022-10-22T00:09:03.061Z,90.50
2022-10-22T00:09:34.935Z,90.50
2022-10-22T00:10:08.100Z,90.30
2022-10-22T00:10:40.234Z,90.50
2022-10-22T00:11:17.534Z,90.50
2022-10-22T00:11:49.252Z,90.50
2022-10-22T00:12:21.357Z,90.40
2022-10-22T00:12:53.191Z,90.40
2022-10-22T00:13:25.538Z,90.40
2022-10-22T00:13:57.788Z,90.40
2022-10-22T00:14:29.510Z,90.40
2022-10-22T00:15:01.465Z,90.20
2022-10-22T00:15:33.660Z,90.40
2022-10-22T00:16:05.560Z,90.40
2022-10-22T00:16:37.313Z,90.40
2022-10-22T00:17:11.471Z,90.60
2022-10-22T00:17:43.614Z,90.20
2022-10-22T00:18:15.379Z,90.40
2022-10-22T00:18:47.227Z,90.40
2022-10-22T00:19:19.063Z,90.60
2022-10-22T00:19:50.828Z,90.60
2022-10-22T00:20:22.899Z,90.80
2022-10-22T00:20:54.660Z,90.40
2022-10-22T00:21:29.003Z,90.10
2022-10-22T00:22:00.836Z,90.40
2022-10-22T00:22:32.563Z,90.30
2022-10-22T00:23:04.364Z,90.10
2022-10-22T00:23:36.106Z,90.40
2022-10-22T00:24:08.035Z,90.10
2022-10-22T00:24:40.862Z,90.30
2022-10-22T00:25:12.656Z,90.30
2022-10-22T00:25:44.407Z,90.40
2022-10-22T00:26:16.132Z,90.40
2022-10-22T00:26:47.922Z,90.40
2022-10-22T00:27:20.081Z,90.30
2022-10-22T00:27:52.656Z,90.10
2022-10-22T00:28:24.806Z,90.30
2022-10-22T00:28:56.617Z,90.30
2022-10-22T00:29:28.489Z,90.40
2022-10-22T00:30:00.239Z,90.30
2022-10-22T00:30:32.004Z,90.40
2022-10-22T00:31:03.955Z,90.30
2022-10-22T00:31:35.673Z,90.30
2022-10-22T00:32:07.779Z,90.30
2022-10-22T00:32:39.812Z,90.00
2022-10-22T00:33:11.810Z,90.00
2022-10-22T00:33:47.234Z,90.20
2022-10-22T00:34:22.177Z,90.20
2022-10-22T00:34:53.896Z,90.30
2022-10-22T00:35:25.622Z,90.00
2022-10-22T00:35:57.860Z,90.40
2022-10-22T00:36:29.590Z,90.30
2022-10-22T00:37:01.349Z,90.20
2022-10-22T00:37:33.119Z,90.20
2022-10-22T00:38:05.375Z,90.00
2022-10-22T00:38:37.082Z,90.30
2022-10-22T00:39:09.119Z,90.30
2022-10-22T00:39:40.899Z,90.20
2022-10-22T00:40:12.886Z,90.10
2022-10-22T00:40:44.927Z,90.00
2022-10-22T00:41:16.788Z,90.10
2022-10-22T00:41:50.910Z,90.20
2022-10-22T00:42:26.101Z,90.10
2022-10-22T00:42:57.873Z,90.40
2022-10-22T00:43:29.658Z,89.70
2022-10-22T00:44:06.850Z,89.90
2022-10-22T00:45:00.266Z,89.90
2022-10-22T00:45:31.997Z,90.10
2022-10-22T00:46:03.745Z,89.90
2022-10-22T00:46:35.499Z,90.10
2022-10-22T00:47:07.286Z,90.10
2022-10-22T00:47:47.959Z,89.80
2022-10-22T00:48:21.943Z,90.10
2022-10-22T00:48:55.042Z,90.10
2022-10-22T00:49:26.851Z,90.10
2022-10-22T00:49:59.993Z,90.10
2022-10-22T00:50:38.015Z,89.70
2022-10-22T00:51:09.971Z,90.10
2022-10-22T00:51:41.731Z,90.10
2022-10-22T00:52:14.702Z,90.00
2022-10-22T00:52:47.549Z,90.00
2022-10-22T00:53:24.697Z,90.10
2022-10-22T00:54:02.888Z,90.00
2022-10-22T00:54:36.324Z,90.30
2022-10-22T00:55:08.706Z,90.00
2022-10-22T00:55:43.535Z,89.80
2022-10-22T00:56:16.082Z,89.60
2022-10-22T00:56:49.136Z,89.50
2022-10-22T00:57:22.364Z,89.80
2022-10-22T00:57:58.362Z,90.00
2022-10-22T00:58:34.832Z,90.00
2022-10-22T00:59:44.315Z,89.80
2022-10-22T01:00:16.608Z,90.00
2022-10-22T01:00:49.031Z,90.00
2022-10-22T01:01:27.558Z,90.00
2022-10-22T01:01:59.629Z,89.80
2022-10-22T01:02:31.611Z,90.10
2022-10-22T01:03:03.746Z,90.00
2022-10-22T01:03:35.511Z,89.90
2022-10-22T01:04:07.251Z,89.30
2022-10-22T01:04:39.829Z,89.70
2022-10-22T01:05:11.788Z,90.10
2022-10-22T01:05:54.318Z,89.80
2022-10-22T01:06:34.157Z,89.90
2022-10-22T01:07:06.298Z,89.80
2022-10-22T01:07:53.120Z,89.20
2022-10-22T01:08:36.741Z,89.70
2022-10-22T01:09:38.577Z,89.70
2022-10-22T01:10:25.425Z,89.50
2022-10-22T01:11:27.812Z,89.70
2022-10-22T01:12:33.251Z,89.60
2022-10-22T01:13:29.599Z,89.60
2022-10-22T01:14:25.144Z,89.50
2022-10-22T01:14:59.567Z,89.60
2022-10-22T01:15:48.024Z,89.50
2022-10-22T01:16:41.935Z,89.60
2022-10-22T01:17:45.976Z,89.00
2022-10-22T01:18:30.158Z,89.60
2022-10-22T01:19:10.415Z,89.40
2022-10-22T01:20:00.607Z,89.50
2022-10-22T01:21:03.926Z,89.60
2022-10-22T01:21:46.556Z,89.60
2022-10-22T01:22:40.283Z,89.40
2022-10-22T01:23:43.964Z,89.50
2022-10-22T01:24:36.113Z,89.30
2022-10-22T01:25:31.872Z,89.40
2022-10-22T01:26:12.187Z,89.30
2022-10-22T01:27:10.770Z,89.90
2022-10-22T01:28:08.615Z,89.30
2022-10-22T01:28:58.892Z,89.40
2022-10-22T01:29:40.739Z,89.40
2022-10-22T01:30:15.430Z,89.20
2022-10-22T01:30:52.118Z,89.90
2022-10-22T01:31:29.768Z,89.50
2022-10-22T01:32:09.722Z,89.30
2022-10-22T01:32:54.558Z,89.40
2022-10-22T01:33:28.219Z,89.30
2022-10-22T01:34:02.459Z,89.40
2022-10-22T01:34:36.508Z,89.40
2022-10-22T01:35:11.501Z,89.30
2022-10-22T01:35:45.469Z,89.30
2022-10-22T01:36:19.038Z,89.50
2022-10-22T01:36:52.804Z,88.80
2022-10-22T01:37:30.173Z,89.80
2022-10-22T01:38:06.191Z,89.30
2022-10-22T01:38:40.049Z,89.30
2022-10-22T01:39:14.568Z,89.40
2022-10-22T01:39:48.163Z,89.40
2022-10-22T01:40:21.647Z,88.80
2022-10-22T01:40:54.471Z,89.30
2022-10-22T01:41:31.156Z,89.30
2022-10-22T01:42:03.006Z,89.30
2022-10-22T01:42:34.750Z,89.30
2022-10-22T01:43:09.470Z,89.50
2022-10-22T01:43:41.226Z,89.30
2022-10-22T01:45:15.267Z,89.20
2022-10-22T01:45:51.650Z,89.30
2022-10-22T01:46:25.511Z,89.30
2022-10-22T01:47:16.086Z,89.50
2022-10-22T01:47:56.530Z,89.30
2022-10-22T01:48:34.130Z,89.40
2022-10-22T01:49:37.857Z,89.40
2022-10-22T01:50:27.488Z,89.40
2022-10-22T01:51:36.040Z,89.40
2022-10-22T01:52:39.904Z,89.40
2022-10-22T01:53:35.718Z,89.40
2022-10-22T01:54:26.489Z,89.40
2022-10-22T01:55:10.072Z,89.50
2022-10-22T01:56:12.507Z,89.50
2022-10-22T01:57:02.651Z,89.40
2022-10-22T01:57:51.126Z,89.50
2022-10-22T01:58:45.458Z,89.60
2022-10-22T01:59:23.239Z,89.60
2022-10-22T02:00:09.458Z,89.60
2022-10-22T02:00:50.932Z,89.50
2022-10-22T02:01:28.436Z,89.50
2022-10-22T02:02:09.139Z,89.50
2022-10-22T02:02:56.702Z,89.50
2022-10-22T02:03:51.000Z,89.60
2022-10-22T02:04:32.978Z,89.70
2022-10-22T02:05:12.348Z,89.70
2022-10-22T02:05:52.994Z,89.80
2022-10-22T02:06:27.639Z,89.80
2022-10-22T02:07:04.752Z,89.70
2022-10-22T02:07:52.186Z,89.70
2022-10-22T02:08:30.879Z,89.70
2022-10-22T02:09:03.987Z,89.60
2022-10-22T02:09:37.575Z,89.70
2022-10-22T02:10:11.996Z,89.40
2022-10-22T02:10:46.674Z,89.70
2022-10-22T02:11:18.507Z,89.90
2022-10-22T02:11:51.200Z,90.00
2022-10-22T02:12:26.483Z,89.80
2022-10-22T02:13:00.986Z,89.80
2022-10-22T02:13:42.769Z,89.70
2022-10-22T02:14:18.200Z,89.70
2022-10-22T02:14:51.721Z,90.10
2022-10-22T02:15:28.926Z,89.80
2022-10-22T02:16:03.405Z,89.80
2022-10-22T02:16:41.180Z,89.80
2022-10-22T02:17:19.068Z,89.80
2022-10-22T02:17:54.878Z,89.80
2022-10-22T02:18:30.884Z,90.10
2022-10-22T02:19:11.638Z,89.90
2022-10-22T02:20:06.770Z,89.50
2022-10-22T02:20:42.194Z,90.00
2022-10-22T02:21:15.692Z,89.90
2022-10-22T02:21:47.599Z,89.80
2022-10-22T02:22:20.424Z,89.40
2022-10-22T02:22:53.043Z,90.00
2022-10-22T02:23:24.890Z,90.00
2022-10-22T02:23:56.767Z,89.50
2022-10-22T02:24:29.219Z,90.00
2022-10-22T02:25:01.249Z,89.90
2022-10-22T02:25:38.559Z,89.40
2022-10-22T02:26:41.850Z,90.00
2022-10-22T02:27:45.903Z,90.00
2022-10-22T02:28:38.174Z,89.90
2022-10-22T02:29:35.690Z,90.00
2022-10-22T02:30:17.783Z,90.00
2022-10-22T02:30:54.949Z,90.00
2022-10-22T02:31:31.110Z,90.30
2022-10-22T02:32:07.171Z,89.70
2022-10-22T02:32:41.875Z,90.00
2022-10-22T02:33:21.440Z,90.00
2022-10-22T02:33:57.832Z,90.10
2022-10-22T02:34:31.975Z,90.00
2022-10-22T02:35:05.579Z,90.20
2022-10-22T02:35:41.225Z,90.00
2022-10-22T02:36:15.500Z,90.30
2022-10-22T02:36:50.485Z,90.00
2022-10-22T02:37:24.668Z,90.00
2022-10-22T02:37:58.917Z,90.00
2022-10-22T02:38:32.047Z,90.10
2022-10-22T02:39:04.685Z,90.10
2022-10-22T02:39:37.717Z,90.00
2022-10-22T02:40:10.395Z,90.00
2022-10-22T02:40:42.378Z,90.00
2022-10-22T02:41:16.608Z,90.00
2022-10-22T02:41:48.715Z,90.00
2022-10-22T02:42:20.572Z,90.00
2022-10-22T02:42:53.304Z,90.00
2022-10-22T02:43:25.600Z,90.30
2022-10-22T02:43:57.314Z,90.00
2022-10-22T02:44:29.150Z,90.00
2022-10-22T02:45:00.896Z,90.00
2022-10-22T02:45:34.614Z,89.50
2022-10-22T02:46:06.643Z,89.90
2022-10-22T02:46:40.066Z,89.30
2022-10-22T02:47:12.910Z,90.10
2022-10-22T02:47:45.042Z,90.00
2022-10-22T02:48:16.860Z,89.90
2022-10-22T02:48:48.690Z,89.50
2022-10-22T02:49:20.428Z,89.90
2022-10-22T02:49:52.174Z,89.90
2022-10-22T02:50:23.896Z,89.40
2022-10-22T02:50:55.599Z,89.30
2022-10-22T02:51:27.440Z,89.80
2022-10-22T02:51:59.703Z,89.20
2022-10-22T02:52:31.446Z,89.80
2022-10-22T02:53:03.221Z,89.70
2022-10-22T02:53:34.981Z,89.80
2022-10-22T02:54:06.827Z,89.80
2022-10-22T02:54:38.672Z,90.10
2022-10-22T02:55:10.624Z,89.30
2022-10-22T02:55:42.392Z,89.80
2022-10-22T02:56:14.205Z,89.20
2022-10-22T02:56:45.930Z,89.70
2022-10-22T02:57:17.766Z,89.70
2022-10-22T02:57:49.570Z,89.90
2022-10-22T02:58:21.299Z,90.00
2022-10-22T02:58:53.073Z,89.90
2022-10-22T02:59:24.839Z,89.30
2022-10-22T02:59:56.639Z,89.90
2022-10-22T03:00:28.470Z,89.80
2022-10-22T03:01:00.313Z,89.80
2022-10-22T03:01:32.067Z,89.70
2022-10-22T03:02:04.219Z,89.70
2022-10-22T03:02:36.246Z,89.80
2022-10-22T03:03:07.994Z,89.80
2022-10-22T03:03:39.726Z,89.70
2022-10-22T03:04:11.457Z,89.80
2022-10-22T03:04:43.241Z,89.20
2022-10-22T03:05:15.000Z,90.00
2022-10-22T03:05:46.738Z,89.70
2022-10-22T03:06:18.657Z,89.10
2022-10-22T03:06:50.525Z,89.80
2022-10-22T03:07:22.292Z,89.10
2022-10-22T03:07:54.019Z,89.60
2022-10-22T03:08:26.219Z,89.60
2022-10-22T03:08:58.273Z,89.60
2022-10-22T03:09:30.187Z,89.70
2022-10-22T03:10:02.032Z,89.30
2022-10-22T03:10:33.779Z,89.60
2022-10-22T03:11:05.600Z,89.60
2022-10-22T03:11:37.340Z,89.80
2022-10-22T03:12:09.298Z,89.90
2022-10-22T03:12:41.053Z,89.70
2022-10-22T03:13:13.521Z,89.60
2022-10-22T03:13:45.232Z,89.70
2022-10-22T03:14:17.033Z,90.10
2022-10-22T03:14:48.760Z,89.60
2022-10-22T03:15:20.525Z,89.70
2022-10-22T03:15:52.288Z,89.90
2022-10-22T03:16:24.042Z,89.90
2022-10-22T03:16:55.776Z,89.90
2022-10-22T03:17:27.539Z,89.30
2022-10-22T03:17:59.303Z,89.70
2022-10-22T03:18:31.110Z,89.70
2022-10-22T03:19:02.984Z,89.80
2022-10-22T03:19:34.923Z,89.90
2022-10-22T03:20:07.235Z,89.20
2022-10-22T03:20:38.984Z,89.80
2022-10-22T03:21:20.310Z,89.20
2022-10-22T03:22:05.439Z,89.70
2022-10-22T03:22:40.784Z,89.90
2022-10-22T03:23:16.574Z,89.80
2022-10-22T03:23:48.788Z,89.70
2022-10-22T03:24:31.212Z,89.80
2022-10-22T03:25:10.888Z,89.80
2022-10-22T03:25:44.535Z,89.70
2022-10-22T03:26:16.375Z,89.70
2022-10-22T03:26:52.051Z,89.30
2022-10-22T03:27:24.782Z,89.80
2022-10-22T03:28:04.089Z,90.10
2022-10-22T03:28:36.827Z,89.80
2022-10-22T03:29:11.219Z,89.70
2022-10-22T03:29:43.399Z,89.70
2022-10-22T03:30:15.257Z,89.30
2022-10-22T03:30:46.989Z,89.90
2022-10-22T03:31:18.698Z,89.90
2022-10-22T03:31:50.435Z,89.80
2022-10-22T03:32:22.204Z,89.90
2022-10-22T03:32:53.918Z,90.00
2022-10-22T03:33:25.673Z,90.00
2022-10-22T03:33:57.391Z,89.40
2022-10-22T03:34:29.150Z,89.60
2022-10-22T03:35:45.281Z,89.90
2022-10-22T03:36:17.201Z,90.00
2022-10-22T03:36:49.742Z,90.00
2022-10-22T03:37:22.625Z,89.80
2022-10-22T03:37:55.110Z,89.30
2022-10-22T03:38:27.302Z,89.90
2022-10-22T03:39:01.205Z,89.90
2022-10-22T03:39:36.185Z,89.80
2022-10-22T03:40:08.970Z,89.80
2022-10-22T03:40:42.674Z,89.80
2022-10-22T03:41:14.779Z,89.90
2022-10-22T03:41:48.190Z,89.90
2022-10-22T03:42:21.560Z,90.00
2022-10-22T03:42:53.454Z,89.90
2022-10-22T03:43:25.550Z,90.00
2022-10-22T03:43:59.967Z,89.90
2022-10-22T03:44:32.501Z,89.80
2022-10-22T03:45:05.177Z,89.80
2022-10-22T03:46:13.598Z,90.00
2022-10-22T03:46:45.375Z,89.90
2022-10-22T03:47:17.168Z,90.00
2022-10-22T03:47:48.966Z,90.20
2022-10-22T03:48:20.721Z,90.00
2022-10-22T03:48:52.499Z,89.40
2022-10-22T03:49:24.263Z,90.00
2022-10-22T03:49:56.062Z,89.90
2022-10-22T03:50:27.857Z,89.50
2022-10-22T03:50:59.606Z,89.90
2022-10-22T03:51:31.356Z,90.00
2022-10-22T03:52:12.056Z,90.00
2022-10-22T03:52:43.865Z,90.00
2022-10-22T03:53:15.560Z,90.10
2022-10-22T03:53:47.284Z,90.00
2022-10-22T03:54:18.989Z,89.60
2022-10-22T03:54:50.798Z,90.30
2022-10-22T03:55:22.575Z,90.00
2022-10-22T03:55:54.318Z,90.00
2022-10-22T03:56:26.111Z,90.00
2022-10-22T03:56:57.862Z,90.00
2022-10-22T03:57:29.896Z,89.60
2022-10-22T03:58:02.197Z,89.60
2022-10-22T03:58:33.900Z,90.00
2022-10-22T03:59:05.759Z,90.30
2022-10-22T03:59:43.390Z,90.00
2022-10-22T04:00:15.396Z,90.00
2022-10-22T04:00:47.151Z,90.00
2022-10-22T04:01:18.946Z,90.10
2022-10-22T04:01:50.892Z,90.00
2022-10-22T04:02:22.698Z,90.20
2022-10-22T04:02:54.438Z,90.00
2022-10-22T04:03:26.180Z,90.10
2022-10-22T04:03:58.499Z,90.00
2022-10-22T04:04:30.533Z,90.00
2022-10-22T04:05:02.500Z,89.60
2022-10-22T04:05:34.301Z,90.30
2022-10-22T04:06:09.691Z,90.00
2022-10-22T04:06:41.405Z,90.00
2022-10-22T04:07:13.386Z,90.10
2022-10-22T04:07:45.141Z,90.00
2022-10-22T04:08:16.862Z,90.10
2022-10-22T04:08:48.733Z,89.70
2022-10-22T04:09:20.601Z,90.20
2022-10-22T04:09:52.382Z,90.10
2022-10-22T04:10:24.131Z,90.00
2022-10-22T04:10:55.878Z,90.10
2022-10-22T04:11:27.657Z,90.00
2022-10-22T04:11:59.753Z,89.70
2022-10-22T04:12:31.489Z,90.30
2022-10-22T04:13:03.225Z,89.70
2022-10-22T04:13:35.150Z,90.10
2022-10-22T04:14:06.860Z,90.10
2022-10-22T04:14:38.626Z,89.70
2022-10-22T04:15:10.548Z,90.10
2022-10-22T04:15:42.318Z,90.10
2022-10-22T04:16:17.716Z,90.10
2022-10-22T04:16:49.548Z,90.10
2022-10-22T04:17:21.275Z,90.20
2022-10-22T04:17:52.981Z,90.20
2022-10-22T04:18:24.724Z,90.10
2022-10-22T04:18:57.375Z,90.20
2022-10-22T04:19:29.193Z,90.10
2022-10-22T04:20:01.374Z,90.30
2022-10-22T04:20:33.122Z,90.30
2022-10-22T04:21:06.178Z,90.10
2022-10-22T04:21:37.931Z,90.10
2022-10-22T04:22:09.700Z,89.90
2022-10-22T04:22:41.444Z,90.10
2022-10-22T04:23:14.177Z,90.10
2022-10-22T04:23:50.699Z,90.20
2022-10-22T04:24:22.443Z,90.10
2022-10-22T04:24:54.182Z,90.20
2022-10-22T04:25:26.065Z,90.20
2022-10-22T04:26:03.078Z,90.20
2022-10-22T04:26:34.801Z,90.20
2022-10-22T04:27:06.534Z,90.00
2022-10-22T04:27:38.652Z,90.30
2022-10-22T04:28:10.581Z,90.00
2022-10-22T04:28:42.475Z,90.20
2022-10-22T04:29:16.133Z,90.20
2022-10-22T04:29:48.337Z,90.00
2022-10-22T04:30:20.062Z,90.20
2022-10-22T04:30:52.068Z,90.20
2022-10-22T04:31:25.902Z,90.20
2022-10-22T04:31:57.680Z,90.20
2022-10-22T04:32:29.507Z,90.30
2022-10-22T04:33:01.255Z,90.30
2022-10-22T04:33:33.013Z,90.30
2022-10-22T04:34:04.745Z,90.00
2022-10-22T04:34:36.465Z,90.40
2022-10-22T04:35:08.415Z,90.30
2022-10-22T04:35:40.153Z,90.30
2022-10-22T04:36:17.911Z,90.40
2022-10-22T04:36:49.714Z,90.40
2022-10-22T04:37:22.234Z,90.30
2022-10-22T04:37:56.541Z,90.30
2022-10-22T04:38:28.282Z,90.30
2022-10-22T04:39:01.659Z,90.10
2022-10-22T04:39:33.371Z,90.40
2022-10-22T04:40:05.659Z,90.40
2022-10-22T04:40:37.542Z,90.30
2022-10-22T04:41:21.013Z,90.30
2022-10-22T04:41:52.812Z,90.30
2022-10-22T04:42:24.572Z,90.30
2022-10-22T04:42:56.898Z,90.30
2022-10-22T04:43:28.649Z,90.40
2022-10-22T04:44:01.623Z,90.30
2022-10-22T04:44:33.500Z,90.20
2022-10-22T04:45:05.584Z,90.30
2022-10-22T04:45:37.412Z,90.30
2022-10-22T04:46:09.814Z,90.60
2022-10-22T04:46:41.831Z,90.20
2022-10-22T04:47:13.541Z,90.20
2022-10-22T04:47:45.334Z,90.30
2022-10-22T04:48:17.132Z,90.30
2022-10-22T04:48:48.922Z,90.30
2022-10-22T04:49:20.674Z,90.30
2022-10-22T04:49:52.381Z,90.00
2022-10-22T04:50:24.271Z,90.20
2022-10-22T04:50:58.888Z,90.20
2022-10-22T04:51:31.519Z,90.20
2022-10-22T04:52:03.302Z,90.20
2022-10-22T04:52:35.078Z,90.00
2022-10-22T04:53:06.852Z,90.20
2022-10-22T04:53:40.435Z,90.20
2022-10-22T04:54:13.091Z,89.90
2022-10-22T04:54:47.267Z,89.80
2022-10-22T04:55:19.044Z,90.10
2022-10-22T04:55:50.833Z,90.10
2022-10-22T04:56:28.005Z,90.40
2022-10-22T04:56:59.858Z,90.10
2022-10-22T04:57:32.181Z,89.80
2022-10-22T04:58:04.039Z,90.10
2022-10-22T04:58:35.840Z,90.10
2022-10-22T04:59:09.066Z,89.80
2022-10-22T04:59:40.832Z,90.10
2022-10-22T05:00:12.842Z,90.10
2022-10-22T05:00:44.617Z,90.20
2022-10-22T05:01:31.603Z,90.10
2022-10-22T05:02:03.399Z,90.00
2022-10-22T05:02:35.197Z,90.10
2022-10-22T05:03:07.162Z,90.10
2022-10-22T05:03:39.451Z,90.10
2022-10-22T05:04:14.120Z,90.00
2022-10-22T05:04:45.827Z,89.60
2022-10-22T05:05:17.642Z,90.10
2022-10-22T05:05:49.400Z,90.00
2022-10-22T05:06:22.770Z,90.00
2022-10-22T05:06:54.543Z,90.00
2022-10-22T05:07:26.371Z,90.00
2022-10-22T05:07:58.113Z,90.30
2022-10-22T05:08:29.834Z,90.00
2022-10-22T05:09:07.677Z,89.60
2022-10-22T05:09:39.494Z,90.00
2022-10-22T05:10:11.230Z,90.00
2022-10-22T05:10:42.974Z,89.60
2022-10-22T05:11:19.962Z,89.40
2022-10-22T05:11:52.772Z,90.00
2022-10-22T05:12:24.539Z,89.80
2022-10-22T05:12:56.250Z,89.90
2022-10-22T05:13:28.055Z,89.80
2022-10-22T05:14:01.466Z,89.80
2022-10-22T05:14:33.624Z,89.90
2022-10-22T05:15:05.774Z,89.80
2022-10-22T05:15:37.502Z,90.20
2022-10-22T05:16:09.940Z,89.80
2022-10-22T05:16:41.719Z,90.00
2022-10-22T05:17:13.475Z,89.10
2022-10-22T05:17:45.212Z,90.00
2022-10-22T05:18:19.042Z,90.20
2022-10-22T05:18:53.616Z,89.20
2022-10-22T05:19:29.278Z,90.00
2022-10-22T05:20:00.991Z,89.50
2022-10-22T05:20:32.739Z,89.50
2022-10-22T05:21:08.287Z,89.50
2022-10-22T05:21:40.053Z,89.10
2022-10-22T05:22:11.827Z,89.50
2022-10-22T05:22:43.541Z,89.40
2022-10-22T05:23:15.368Z,89.40
2022-10-22T05:23:49.619Z,89.40
2022-10-22T05:24:21.640Z,89.30
2022-10-22T05:24:53.355Z,89.60
2022-10-22T05:25:25.119Z,89.40
2022-10-22T05:25:56.938Z,89.30
2022-10-22T05:26:29.318Z,90.00
2022-10-22T05:27:01.226Z,89.40
2022-10-22T05:27:32.973Z,89.30
2022-10-22T05:28:05.015Z,89.20
2022-10-22T05:28:37.232Z,89.20
2022-10-22T05:29:09.501Z,89.10
2022-10-22T05:29:41.254Z,89.10
2022-10-22T05:30:13.089Z,89.50
2022-10-22T05:30:57.114Z,89.10
2022-10-22T05:31:29.419Z,89.10
2022-10-22T05:32:01.211Z,89.10
2022-10-22T05:32:35.290Z,88.70
2022-10-22T05:33:07.038Z,88.50
2022-10-22T05:33:39.416Z,88.90
2022-10-22T05:34:11.413Z,88.90
2022-10-22T05:34:43.118Z,88.90
2022-10-22T05:35:14.908Z,88.40
2022-10-22T05:35:46.910Z,88.80
2022-10-22T05:36:21.152Z,88.30
2022-10-22T05:36:52.950Z,88.80
2022-10-22T05:37:24.680Z,89.00
2022-10-22T05:38:34.349Z,88.70
2022-10-22T05:39:06.244Z,88.60
2022-10-22T05:39:40.183Z,88.70
2022-10-22T05:40:19.473Z,88.10
2022-10-22T05:41:10.958Z,88.70
2022-10-22T05:41:42.701Z,88.50
2022-10-22T05:42:14.423Z,88.60
2022-10-22T05:42:46.097Z,88.70
2022-10-22T05:43:17.814Z,88.60
2022-10-22T05:43:50.341Z,88.60
2022-10-22T05:44:22.068Z,88.60
2022-10-22T05:44:53.784Z,88.60
2022-10-22T05:45:25.505Z,88.50
2022-10-22T05:46:00.886Z,88.60
2022-10-22T05:46:36.034Z,88.90
2022-10-22T05:47:07.885Z,88.60
2022-10-22T05:47:39.618Z,88.60
2022-10-22T05:48:11.530Z,88.70
2022-10-22T05:48:44.432Z,88.50
2022-10-22T05:49:16.264Z,88.50
2022-10-22T05:49:48.615Z,88.50
2022-10-22T05:50:20.346Z,88.60
2022-10-22T05:50:52.074Z,88.40
2022-10-22T05:51:24.842Z,88.40
2022-10-22T05:51:56.572Z,88.90
2022-10-22T05:52:28.321Z,88.40
2022-10-22T05:53:00.071Z,89.20
2022-10-22T05:53:36.251Z,87.90
2022-10-22T05:54:08.847Z,88.40
2022-10-22T05:54:40.727Z,89.10
2022-10-22T05:55:12.408Z,87.90
2022-10-22T05:55:44.683Z,88.50
2022-10-22T05:56:16.881Z,88.30
2022-10-22T05:56:48.871Z,88.30
2022-10-22T05:57:20.641Z,88.40
2022-10-22T05:57:52.371Z,88.30
2022-10-22T05:58:24.114Z,87.80
2022-10-22T05:58:56.999Z,88.30
2022-10-22T05:59:28.779Z,88.30
2022-10-22T06:00:00.593Z,88.70
2022-10-22T06:00:34.443Z,89.20
2022-10-22T06:01:09.399Z,88.30
2022-10-22T06:01:41.494Z,88.30
2022-10-22T06:02:13.256Z,87.90
2022-10-22T06:02:48.993Z,88.40
2022-10-22T06:03:20.734Z,88.30
2022-10-22T06:03:58.157Z,88.60
2022-10-22T06:04:29.936Z,88.10
2022-10-22T06:05:01.658Z,87.70
2022-10-22T06:05:37.725Z,88.40
2022-10-22T06:06:25.598Z,88.30
2022-10-22T06:06:57.751Z,88.10
2022-10-22T06:07:30.114Z,88.40
2022-10-22T06:08:02.964Z,88.10
2022-10-22T06:08:34.867Z,88.60
2022-10-22T06:09:14.993Z,88.20
2022-10-22T06:09:50.117Z,88.10
2022-10-22T06:10:22.198Z,88.10
2022-10-22T06:10:54.591Z,87.70
2022-10-22T06:11:28.827Z,88.80
2022-10-22T06:12:03.715Z,88.30
2022-10-22T06:12:35.957Z,88.00
2022-10-22T06:13:08.116Z,88.00
2022-10-22T06:13:40.124Z,87.60
2022-10-22T06:14:12.406Z,88.10
2022-10-22T06:14:44.387Z,87.40
2022-10-22T06:15:18.850Z,87.30
2022-10-22T06:15:53.374Z,88.00
2022-10-22T06:16:25.158Z,87.90
2022-10-22T06:16:59.982Z,88.00
2022-10-22T06:17:31.750Z,88.00
2022-10-22T06:18:03.715Z,87.30
2022-10-22T06:18:35.514Z,87.40
2022-10-22T06:19:09.527Z,88.50
2022-10-22T06:19:41.925Z,87.90
2022-10-22T06:20:14.885Z,88.00
2022-10-22T06:20:47.625Z,87.80
2022-10-22T06:21:19.333Z,88.60
2022-10-22T06:21:51.143Z,88.20
2022-10-22T06:22:22.923Z,88.00
2022-10-22T06:22:54.698Z,88.10
2022-10-22T06:23:26.791Z,88.10
2022-10-22T06:24:00.233Z,88.00
2022-10-22T06:24:32.038Z,88.00
2022-10-22T06:25:04.950Z,87.90
2022-10-22T06:25:36.688Z,88.00
2022-10-22T06:26:09.837Z,88.20
2022-10-22T06:26:42.158Z,88.40
2022-10-22T06:27:13.901Z,87.90
2022-10-22T06:27:51.496Z,88.00
2022-10-22T06:28:56.666Z,87.40
2022-10-22T06:29:28.529Z,88.00
2022-10-22T06:30:00.714Z,88.00
2022-10-22T06:30:32.490Z,87.90
2022-10-22T06:31:05.140Z,88.00
2022-10-22T06:31:37.233Z,88.00
2022-10-22T06:32:08.968Z,88.10
2022-10-22T06:32:41.386Z,88.00
2022-10-22T06:33:13.414Z,87.40
2022-10-22T06:33:45.170Z,87.90
2022-10-22T06:34:20.702Z,87.40
2022-10-22T06:34:52.432Z,88.00
2022-10-22T06:35:24.190Z,88.00
2022-10-22T06:35:55.951Z,87.90
2022-10-22T06:36:27.746Z,88.00
2022-10-22T06:36:59.488Z,87.50
2022-10-22T06:37:31.210Z,87.90
2022-10-22T06:38:02.972Z,87.40
2022-10-22T06:38:34.814Z,88.00
2022-10-22T06:39:06.726Z,88.50
2022-10-22T06:39:38.461Z,88.30
2022-10-22T06:40:11.025Z,88.10
2022-10-22T06:40:44.773Z,87.90
2022-10-22T06:41:17.310Z,88.40
2022-10-22T06:41:49.021Z,87.90
2022-10-22T06:42:22.162Z,87.90
2022-10-22T06:42:54.334Z,87.30
2022-10-22T06:43:26.089Z,87.80
2022-10-22T06:43:58.229Z,87.30
2022-10-22T06:44:30.038Z,88.00
2022-10-22T06:45:38.490Z,87.70
2022-10-22T06:46:13.666Z,87.80
2022-10-22T06:46:52.375Z,87.30
2022-10-22T06:47:24.169Z,87.70
2022-10-22T06:47:55.964Z,87.30
2022-10-22T06:48:28.267Z,87.80
2022-10-22T06:49:02.432Z,87.90
2022-10-22T06:49:34.227Z,87.70
2022-10-22T06:50:06.375Z,87.70
2022-10-22T06:50:38.115Z,87.60
2022-10-22T06:51:11.835Z,88.20
2022-10-22T06:51:43.634Z,87.80
2022-10-22T06:52:15.414Z,87.20
2022-10-22T06:52:47.418Z,87.70
2022-10-22T06:53:57.721Z,87.30
2022-10-22T06:54:29.437Z,87.90
2022-10-22T06:55:01.209Z,87.40
2022-10-22T06:55:35.278Z,87.80
2022-10-22T06:56:08.210Z,87.70
2022-10-22T06:56:40.167Z,87.90
2022-10-22T06:57:11.881Z,87.80
2022-10-22T06:57:43.836Z,87.60
2022-10-22T06:58:15.918Z,87.80
2022-10-22T06:58:48.903Z,87.30
2022-10-22T06:59:20.702Z,87.80
2022-10-22T06:59:52.427Z,87.80
2022-10-22T07:00:24.670Z,87.30
2022-10-22T07:01:08.370Z,88.10
2022-10-22T07:01:40.724Z,87.60
2022-10-22T07:02:12.486Z,87.80
2022-10-22T07:02:44.296Z,87.60
2022-10-22T07:03:16.529Z,87.60
2022-10-22T07:03:51.412Z,87.90
2022-10-22T07:04:23.157Z,88.10
2022-10-22T07:04:54.966Z,87.80
2022-10-22T07:05:26.981Z,88.30
2022-10-22T07:06:03.537Z,87.30
2022-10-22T07:06:35.314Z,87.60
2022-10-22T07:07:07.276Z,87.30
2022-10-22T07:07:38.971Z,87.60
2022-10-22T07:08:10.684Z,87.80
2022-10-22T07:08:43.138Z,88.00
2022-10-22T07:09:15.091Z,87.90
2022-10-22T07:09:50.576Z,87.90
2022-10-22T07:10:25.976Z,87.90
2022-10-22T07:11:20.909Z,88.00
2022-10-22T07:11:52.653Z,87.80
2022-10-22T07:12:24.490Z,88.00
2022-10-22T07:12:56.229Z,87.50
2022-10-22T07:13:27.955Z,87.50
2022-10-22T07:14:00.309Z,87.90
2022-10-22T07:14:32.142Z,87.90
2022-10-22T07:15:04.331Z,87.90
2022-10-22T07:15:36.014Z,87.90
2022-10-22T07:16:09.066Z,87.60
2022-10-22T07:16:45.595Z,88.00
2022-10-22T07:17:17.353Z,88.00
2022-10-22T07:17:49.154Z,88.10
2022-10-22T07:18:22.147Z,88.10
2022-10-22T07:18:53.913Z,88.10
2022-10-22T07:19:25.698Z,88.10
2022-10-22T07:19:57.420Z,88.00
2022-10-22T07:20:29.139Z,88.00
2022-10-22T07:21:01.922Z,88.30
2022-10-22T07:21:33.639Z,88.00
2022-10-22T07:22:05.437Z,87.60
2022-10-22T07:22:37.210Z,88.20
2022-10-22T07:23:08.975Z,88.20
2022-10-22T07:23:41.345Z,88.20
2022-10-22T07:24:13.047Z,88.20
2022-10-22T07:24:44.793Z,88.70
2022-10-22T07:25:16.771Z,87.80
2022-10-22T07:25:48.836Z,88.30
2022-10-22T07:26:20.770Z,88.20
2022-10-22T07:26:53.561Z,87.80
2022-10-22T07:27:25.339Z,88.10